• Join FlightAware (Why Join?)
  • Login
  • US Flag 
11:44AM EST


 

Airport Tracker/Info


-or-


 

Live Flight TrackerFlight Track Log ✈ VH-FGT ✈ 18-May-2014 ✈ YKIC - YBAS / ASP

Flight Track Log - Related Links

Times and Time Zones

All times are in EDT time to prevent confusion due to time zone crossing. See the VH-FGT flight status page for this flight to view local times or setup timezone preferences in your user account.

Time Position Orientation Groundspeed Altitude Reporting Facility
EDT Latitude Longitude Course Direction KTS MPH feet Rate Location/Type
03:48AM -22.8442 127.9126 101° East 25,000  Level Aus ATC (Calculated)
03:51AM -22.8603 128.0021 101° East  Level Estimated
03:51AM -22.8783 128.1162 279° West 25,000  Level Aus ATC (Calculated)
03:52AM -22.8662 128.0348 101° East  Level Estimated
03:53AM -22.8876 128.1680 101° East  Level Estimated
03:54AM -22.8935 128.2007 101° East  Level Estimated
03:55AM -22.8993 128.2335 101° East  Level Estimated
03:56AM -22.9052 128.2662 101° East  Level Estimated
03:57AM -22.9111 128.2990 101° East  Level Estimated
03:58AM -22.9169 128.3317 101° East  Level Estimated
03:59AM -22.9228 128.3645 101° East  Level Estimated
04:00AM -22.9286 128.3972 101° East  Level Estimated
04:01AM -22.9344 128.4300 101° East  Level Estimated
04:02AM -22.9402 128.4627 101° East  Level Estimated
04:02AM -23.0061 128.8934 279° West 25,000  Level Aus ATC (Calculated)
04:03AM -22.9461 128.4955 101° East  Level Estimated
04:04AM -23.0176 128.9584 101° East  Level Estimated
04:05AM -23.0234 128.9912 101° East  Level Estimated
04:05AM -23.0406 129.1076 100° East 25,000  Level Aus ATC (Calculated)
04:06AM -23.0619 129.2402 279° West 25,000  Level Aus ATC (Calculated)
04:07AM -23.0516 129.1700 101° East  Level Estimated
04:08AM -23.0574 129.2027 101° East  Level Estimated
04:09AM -23.0763 129.3227 101° East  Level Estimated
04:10AM -23.0821 129.3555 101° East  Level Estimated
04:11AM -23.0878 129.3884 101° East  Level Estimated
04:12AM -23.0935 129.4212 101° East  Level Estimated
04:13AM -23.0992 129.4540 101° East  Level Estimated
04:13AM -23.1501 129.7999 279° West 25,000  Level Aus ATC (Calculated)
04:14AM -23.1049 129.4868 101° East  Level Estimated
04:15AM -23.1583 129.8469 101° East  Level Estimated
04:16AM -23.1640 129.8797 101° East  Level Estimated
04:17AM -23.1697 129.9126 101° East  Level Estimated
04:18AM -23.1754 129.9454 101° East  Level Estimated
04:19AM -23.1810 129.9783 101° East  Level Estimated
04:20AM -23.1867 130.0111 101° East  Level Estimated
04:20AM -23.2328 130.3369 101° East 25,000  Level Aus ATC (Calculated)
04:22AM -23.2436 130.3993 101° East  Level Estimated
04:23AM -23.2493 130.4322 101° East  Level Estimated
04:24AM -23.2550 130.4650 101° East  Level Estimated
04:25AM -23.2606 130.4979 101° East  Level Estimated
04:26AM -23.2663 130.5308 101° East  Level Estimated
04:27AM -23.2719 130.5636 101° East  Level Estimated
04:28AM -23.2775 130.5965 101° East  Level Estimated
04:28AM -23.3254 130.9530 278° West 25,000  Level Aus ATC (Calculated)
04:29AM -23.2832 130.6294 101° East  Level Estimated
04:30AM -23.3343 131.0045 101° East  Level Estimated
04:31AM -23.3400 131.0374 101° East  Level Estimated
04:32AM -23.3457 131.0703 101° East  Level Estimated
04:33AM -23.3513 131.1032 101° East  Level Estimated
04:34AM -23.3569 131.1361 100° East  Level FlightAware Approximate
04:34AM -23.3946 131.3981 279° West 500  Level Aus ATC (Calculated)
04:35AM -23.3624 131.1690 100° East  Level FlightAware Approximate
04:35AM -23.4085 131.4806 280° West 500  Level Aus ATC (Calculated)
04:36AM -23.4057 131.4640 100° East  Level FlightAware Approximate
04:37AM -23.4113 131.4969 100° East  Level FlightAware Approximate
04:38AM -23.4235 131.5695 100° East  Level FlightAware Approximate
04:39AM -23.4290 131.6024 100° East  Level FlightAware Approximate
04:40AM -23.4345 131.6354 100° East  Level FlightAware Approximate
04:41AM -23.4400 131.6683 100° East  Level FlightAware Approximate
04:42AM -23.4455 131.7012 100° East  Level FlightAware Approximate
04:43AM -23.4510 131.7342 100° East  Level FlightAware Approximate
04:44AM -23.4565 131.7671 100° East  Level FlightAware Approximate
04:44AM -23.5452 132.3058 280° West 500  Level Aus ATC (Calculated)
04:45AM -23.4620 131.8001 100° East  Level FlightAware Approximate
04:46AM -23.5527 132.3520 100° East  Level FlightAware Approximate
04:47AM -23.5580 132.3850 100° East  Level FlightAware Approximate
04:48AM -23.5634 132.4180 100° East  Level FlightAware Approximate
04:49AM -23.5687 132.4510 100° East  Level FlightAware Approximate
04:50AM -23.5741 132.4840 100° East  Level FlightAware Approximate
04:51AM -23.5794 132.5170 100° East  Level FlightAware Approximate
04:52AM -23.5847 132.5500 100° East  Level FlightAware Approximate
04:53AM -23.5900 132.5830 100° East  Level FlightAware Approximate
04:54AM -23.5953 132.6160 100° East  Level FlightAware Approximate
04:55AM -23.6006 132.6491 100° East  Level FlightAware Approximate
04:56AM -23.6059 132.6821 100° East  Level FlightAware Approximate
04:57AM -23.6112 132.7151 100° East  Level FlightAware Approximate
04:58AM -23.6165 132.7482 100° East  Level FlightAware Approximate
04:59AM -23.6218 132.7812 100° East  Level FlightAware Approximate
04:59AM -23.7419 133.5467 280° West 500  Level Aus ATC (Calculated)
05:00AM -23.6270 132.8142 100° East  Level FlightAware Approximate
05:01AM -23.6323 132.8473 100° East  Level FlightAware Approximate
05:01AM -23.7674 133.7124 279° West 500  Level Aus ATC (Calculated)
05:02AM -23.7565 133.6410 100° East  Level FlightAware Approximate
05:03AM -23.7615 133.6741 100° East  Level FlightAware Approximate
05:03AM -23.8005 133.8896 284° West  Level Aus ATC (Calculated)
05:04AM -23.7809 133.8007 100° East  Level FlightAware Approximate
05:05AM -23.7860 133.8338 99° East  Level FlightAware Approximate
05:06AM -23.7927 133.8782 100° East  Level FlightAware Approximate
05:07AM -23.8067 133.9022 122° Southeast  Level Estimated
05:08AM -23.8067 133.9022 North  Level Estimated
05:09AM -23.8067 133.9022 North  Level Estimated
05:10AM -23.8067 133.9022 North  Level Estimated
05:11AM -23.8067 133.9022 North  Level Estimated
05:12AM -23.8067 133.9022 North  Level Estimated
05:13AM -23.8067 133.9022 North  Level Estimated
05:14AM -23.8067 133.9022 North  Level Estimated
05:15AM -23.8067 133.9022 North  Level Estimated
05:16AM -23.8067 133.9022 North  Level Estimated
05:17AM -23.8067 133.9022 North  Level Estimated
05:18AM -23.8067 133.9022 North  Level Estimated
05:19AM -23.8067 133.9022 North  Level Estimated